Pena Blanca, New Mexico
Current Conditions -  °F | °C
As of 11:53 PM on Sunday 21 Dec 2014 (Local Time) from KSAF Reporting Station
Clear Clear  
Wind Chill: 33°   Ceiling: Unl
Heat Index: 42°   Visibility: 10mi
Dew Point: 29°   Wind: 22mph
Humidity: 60%   Direction: 280°W
Pressure: 29.83"   Gusts: 30mph
Location:  35.57°N, 106.34°W
Report Text: KSAF 220653Z AUTO 28019G26KT 10SM CLR 06/M02 A2983 RMK AO2 PK WND 29030/0622 SLP068 T00561017 400721006
Loading
Personal Weather Stations






























Interactive Weather Map New forecast layout! Learn more

10-Day Weather Forecast

Advertisements
Track Severe Weather on mobile